Terminal Aerodrome Forecast
Issued by NWS Northern Indiana

Home | Current Version | Previous Version | Text Only | Print | Product List | Glossary On
Versions: 1 2 3 4 5 6 7 8 9 10 11 12 13 14
000
FTUS43 KIWX 290139 AAA
TAFFWA
TAF AMD
KFWA 290139Z 2902/2924 02005KT P6SM VCSH SCT050 BKN120
     FM290300 06004KT P6SM FEW050 BKN150
     FM290800 06004KT 4SM BR SCT020 BKN200
     FM291200 07005KT P6SM SCT040 BKN150
      TEMPO 2912/2915 BKN030
     FM292100 06006KT P6SM VCSH BKN050=

USA.gov is the U.S. government's official web portal to all federal, state and local government web resources and services.